createdAt,value
2022-11-04T00:00:11.361Z,10.54
2022-11-04T00:01:11.328Z,10.51
2022-11-04T00:02:11.433Z,10.52
2022-11-04T00:03:11.610Z,10.50
2022-11-04T00:04:11.372Z,10.51
2022-11-04T00:05:11.379Z,10.48
2022-11-04T00:06:11.395Z,10.47
2022-11-04T00:07:11.404Z,10.46
2022-11-04T00:08:11.413Z,10.45
2022-11-04T00:09:11.411Z,10.46
2022-11-04T00:10:11.434Z,10.46
2022-11-04T00:11:11.463Z,10.47
2022-11-04T00:12:11.469Z,10.47
2022-11-04T00:13:11.478Z,10.47
2022-11-04T00:14:11.470Z,10.48
2022-11-04T00:15:11.491Z,10.47
2022-11-04T00:16:11.500Z,10.49
2022-11-04T00:17:11.527Z,10.50
2022-11-04T00:18:11.542Z,10.51
2022-11-04T00:19:11.536Z,10.51
2022-11-04T00:20:11.543Z,10.51
2022-11-04T00:21:11.587Z,10.51
2022-11-04T00:22:11.563Z,10.51
2022-11-04T00:23:11.770Z,10.50
2022-11-04T00:24:11.594Z,10.50
2022-11-04T00:25:11.635Z,10.50
2022-11-04T00:27:11.663Z,10.50
2022-11-04T00:28:11.671Z,10.49
2022-11-04T00:29:11.639Z,10.49
2022-11-04T00:30:11.659Z,10.50
2022-11-04T00:31:11.663Z,10.50
2022-11-04T00:32:11.655Z,10.51
2022-11-04T00:33:11.667Z,10.51
2022-11-04T00:34:11.641Z,10.51
2022-11-04T00:35:11.631Z,10.53
2022-11-04T00:36:11.638Z,10.53
2022-11-04T00:37:11.663Z,10.52
2022-11-04T00:38:11.674Z,10.53
2022-11-04T00:39:11.683Z,10.54
2022-11-04T00:40:11.679Z,10.52
2022-11-04T00:41:11.644Z,10.53
2022-11-04T00:42:11.639Z,10.52
2022-11-04T00:43:11.655Z,10.52
2022-11-04T00:44:11.686Z,10.51
2022-11-04T00:45:11.679Z,10.51
2022-11-04T00:46:11.664Z,10.52
2022-11-04T00:47:11.634Z,10.50
2022-11-04T00:48:11.724Z,10.52
2022-11-04T00:49:11.659Z,10.51
2022-11-04T00:50:11.710Z,10.50
2022-11-04T00:52:11.663Z,10.54
2022-11-04T00:53:11.795Z,10.58
2022-11-04T00:54:11.697Z,10.61
2022-11-04T00:55:11.679Z,10.63
2022-11-04T00:56:11.659Z,10.62
2022-11-04T00:57:11.672Z,10.63
2022-11-04T00:58:11.658Z,10.63
2022-11-04T00:59:14.434Z,10.62
2022-11-04T01:00:11.681Z,10.62
2022-11-04T01:01:11.706Z,10.61
2022-11-04T01:02:11.713Z,10.60
2022-11-04T01:03:11.926Z,10.60
2022-11-04T01:04:11.709Z,10.58
2022-11-04T01:05:11.725Z,10.57
2022-11-04T01:06:11.683Z,10.56
2022-11-04T01:07:11.674Z,10.54
2022-11-04T01:08:11.674Z,10.54
2022-11-04T01:09:11.667Z,10.53
2022-11-04T01:10:11.692Z,10.49
2022-11-04T01:11:11.686Z,10.48
2022-11-04T01:12:11.696Z,10.47
2022-11-04T01:13:11.707Z,10.46
2022-11-04T01:14:11.682Z,10.46
2022-11-04T01:15:11.688Z,10.46
2022-11-04T01:16:11.708Z,10.48
2022-11-04T01:17:11.671Z,10.48
2022-11-04T01:18:11.673Z,10.49
2022-11-04T01:19:11.698Z,10.50
2022-11-04T01:20:11.743Z,10.52
2022-11-04T01:21:11.724Z,10.52
2022-11-04T01:22:11.695Z,10.52
2022-11-04T01:23:11.704Z,10.52
2022-11-04T01:24:11.712Z,10.50
2022-11-04T01:25:11.747Z,10.50
2022-11-04T01:26:11.705Z,10.49
2022-11-04T01:27:11.740Z,10.49
2022-11-04T01:28:11.688Z,10.47
2022-11-04T01:29:11.717Z,10.46
2022-11-04T01:30:11.708Z,10.46
2022-11-04T01:31:11.728Z,10.45
2022-11-04T01:32:11.703Z,10.46
2022-11-04T01:33:11.688Z,10.45
2022-11-04T01:34:11.688Z,10.45
2022-11-04T01:35:11.772Z,10.45
2022-11-04T01:36:11.727Z,10.45
2022-11-04T01:37:11.722Z,10.42
2022-11-04T01:38:11.987Z,10.40
2022-11-04T01:39:11.738Z,10.37
2022-11-04T01:40:11.757Z,10.35
2022-11-04T01:41:11.719Z,10.32
2022-11-04T01:42:11.746Z,10.29
2022-11-04T01:43:11.743Z,10.26
2022-11-04T01:44:11.755Z,10.24
2022-11-04T01:45:11.749Z,10.21
2022-11-04T01:46:11.744Z,10.20
2022-11-04T01:47:11.764Z,10.18
2022-11-04T01:48:11.720Z,10.18
2022-11-04T01:49:11.704Z,10.17
2022-11-04T01:50:11.697Z,10.14
2022-11-04T01:51:11.762Z,10.11
2022-11-04T01:52:11.751Z,10.11
2022-11-04T01:53:12.025Z,10.11
2022-11-04T01:54:11.720Z,10.10
2022-11-04T01:55:11.744Z,10.05
2022-11-04T01:56:11.760Z,10.00
2022-11-04T01:57:14.998Z,9.98
2022-11-04T01:58:11.775Z,9.96
2022-11-04T01:59:11.709Z,9.94
2022-11-04T02:00:11.753Z,9.90
2022-11-04T02:01:11.826Z,9.88
2022-11-04T02:02:11.845Z,9.85
2022-11-04T02:03:11.907Z,9.82
2022-11-04T02:04:11.792Z,9.80
2022-11-04T02:05:11.807Z,9.77
2022-11-04T02:06:11.768Z,9.73
2022-11-04T02:07:11.807Z,9.69
2022-11-04T02:08:11.745Z,9.64
2022-11-04T02:09:11.747Z,9.60
2022-11-04T02:10:11.756Z,9.57
2022-11-04T02:11:11.784Z,9.53
2022-11-04T02:12:11.755Z,9.49
2022-11-04T02:13:11.984Z,9.47
2022-11-04T02:14:11.749Z,9.49
2022-11-04T02:15:11.795Z,9.52
2022-11-04T02:16:11.779Z,9.54
2022-11-04T02:17:11.775Z,9.55
2022-11-04T02:18:11.772Z,9.53
2022-11-04T02:19:11.749Z,9.53
2022-11-04T02:20:11.777Z,9.52
2022-11-04T02:21:11.748Z,9.50
2022-11-04T02:22:11.788Z,9.49
2022-11-04T02:23:11.926Z,9.47
2022-11-04T02:24:11.760Z,9.46
2022-11-04T02:25:11.774Z,9.43
2022-11-04T02:26:11.811Z,9.40
2022-11-04T02:27:11.788Z,9.36
2022-11-04T02:28:11.765Z,9.31
2022-11-04T02:29:11.764Z,9.30
2022-11-04T02:30:11.779Z,9.31
2022-11-04T02:31:11.793Z,9.29
2022-11-04T02:32:11.787Z,9.28
2022-11-04T02:33:12.048Z,9.26
2022-11-04T02:34:11.792Z,9.25
2022-11-04T02:35:11.903Z,9.25
2022-11-04T02:36:11.788Z,9.24
2022-11-04T02:37:11.804Z,9.25
2022-11-04T02:38:11.796Z,9.25
2022-11-04T02:39:11.772Z,9.25
2022-11-04T02:40:11.803Z,9.26
2022-11-04T02:41:11.799Z,9.28
2022-11-04T02:42:11.798Z,9.30
2022-11-04T02:43:12.018Z,9.31
2022-11-04T02:44:11.815Z,9.34
2022-11-04T02:45:11.780Z,9.36
2022-11-04T02:46:11.779Z,9.37
2022-11-04T02:47:11.795Z,9.37
2022-11-04T02:48:11.808Z,9.38
2022-11-04T02:49:11.788Z,9.37
2022-11-04T02:50:11.816Z,9.38
2022-11-04T02:51:11.820Z,9.43
2022-11-04T02:52:11.824Z,9.43
2022-11-04T02:53:12.126Z,9.43
2022-11-04T02:54:11.804Z,9.45
2022-11-04T02:55:11.805Z,9.46
2022-11-04T02:56:11.804Z,9.46
2022-11-04T02:57:11.836Z,9.44
2022-11-04T02:58:11.816Z,9.43
2022-11-04T02:59:11.801Z,9.42
2022-11-04T03:00:11.784Z,9.40
2022-11-04T03:01:11.870Z,9.38
2022-11-04T03:02:11.927Z,9.37
2022-11-04T03:03:12.003Z,9.36
2022-11-04T03:04:11.780Z,9.33
2022-11-04T03:05:11.813Z,9.30
2022-11-04T03:06:11.863Z,9.26
2022-11-04T03:08:11.933Z,9.28
2022-11-04T03:09:11.803Z,9.28
2022-11-04T03:10:11.816Z,9.26
2022-11-04T03:11:11.839Z,9.24
2022-11-04T03:12:11.833Z,9.24
2022-11-04T03:13:11.859Z,9.21
2022-11-04T03:14:11.836Z,9.19
2022-11-04T03:15:11.868Z,9.17
2022-11-04T03:16:11.828Z,9.15
2022-11-04T03:17:11.828Z,9.14
2022-11-04T03:18:11.860Z,9.13
2022-11-04T03:19:11.861Z,9.10
2022-11-04T03:20:11.816Z,9.06
2022-11-04T03:21:11.848Z,9.08
2022-11-04T03:22:11.815Z,9.13
2022-11-04T03:23:11.812Z,9.12
2022-11-04T03:24:11.832Z,9.15
2022-11-04T03:25:11.868Z,9.12
2022-11-04T03:26:11.831Z,9.12
2022-11-04T03:27:11.844Z,9.11
2022-11-04T03:28:12.084Z,9.09
2022-11-04T03:29:11.851Z,9.06
2022-11-04T03:30:11.899Z,9.05
2022-11-04T03:31:11.848Z,8.99
2022-11-04T03:32:11.820Z,8.96
2022-11-04T03:33:12.093Z,8.91
2022-11-04T03:34:11.841Z,8.84
2022-11-04T03:35:11.857Z,8.78
2022-11-04T03:36:11.862Z,8.75
2022-11-04T03:37:11.852Z,8.75
2022-11-04T03:38:11.904Z,8.73
2022-11-04T03:39:11.912Z,8.71
2022-11-04T03:40:11.928Z,8.69
2022-11-04T03:41:11.917Z,8.70
2022-11-04T03:42:11.925Z,8.71
2022-11-04T03:43:12.134Z,8.72
2022-11-04T03:44:11.944Z,8.75
2022-11-04T03:45:11.978Z,8.76
2022-11-04T03:46:11.977Z,8.75
2022-11-04T03:47:11.995Z,8.77
2022-11-04T03:48:12.051Z,8.78
2022-11-04T03:49:12.022Z,8.79
2022-11-04T03:50:12.031Z,8.81
2022-11-04T03:51:12.037Z,8.79
2022-11-04T03:52:12.064Z,8.80
2022-11-04T03:53:12.446Z,8.78
2022-11-04T03:54:12.085Z,8.76
2022-11-04T03:55:12.065Z,8.74
2022-11-04T03:56:12.072Z,8.73
2022-11-04T03:57:12.093Z,8.72
2022-11-04T03:58:12.248Z,8.67
2022-11-04T03:59:12.133Z,8.62
2022-11-04T04:00:12.115Z,8.59
2022-11-04T04:01:12.168Z,8.56
2022-11-04T04:02:12.272Z,8.54
2022-11-04T04:03:12.178Z,8.53
2022-11-04T04:04:12.208Z,8.52
2022-11-04T04:05:15.976Z,8.51
2022-11-04T04:06:12.220Z,8.51
2022-11-04T04:07:12.213Z,8.50
2022-11-04T04:08:12.203Z,8.49
2022-11-04T04:09:12.213Z,8.50
2022-11-04T04:10:12.224Z,8.46
2022-11-04T04:11:12.185Z,8.46
2022-11-04T04:12:12.233Z,8.42
2022-11-04T04:13:12.232Z,8.39
2022-11-04T04:14:12.213Z,8.36
2022-11-04T04:15:12.237Z,8.33
2022-11-04T04:16:12.216Z,8.29
2022-11-04T04:17:12.244Z,8.27
2022-11-04T04:18:12.503Z,8.23
2022-11-04T04:19:12.224Z,8.19
2022-11-04T04:20:12.220Z,8.15
2022-11-04T04:21:12.201Z,8.10
2022-11-04T04:22:12.248Z,8.05
2022-11-04T04:23:12.241Z,8.00
2022-11-04T04:24:12.244Z,7.94
2022-11-04T04:25:12.230Z,7.88
2022-11-04T04:26:12.207Z,7.81
2022-11-04T04:27:12.248Z,7.75
2022-11-04T04:28:12.399Z,7.69
2022-11-04T04:29:12.292Z,7.63
2022-11-04T04:30:12.226Z,7.56
2022-11-04T04:31:12.219Z,7.50
2022-11-04T04:32:12.237Z,7.46
2022-11-04T04:33:12.233Z,7.42
2022-11-04T04:34:12.240Z,7.37
2022-11-04T04:35:12.250Z,7.30
2022-11-04T04:36:12.265Z,7.26
2022-11-04T04:37:12.252Z,7.21
2022-11-04T04:38:12.213Z,7.18
2022-11-04T04:39:12.225Z,7.12
2022-11-04T04:40:12.245Z,7.09
2022-11-04T04:41:12.246Z,7.06
2022-11-04T04:42:12.233Z,7.01
2022-11-04T04:43:12.461Z,6.99
2022-11-04T04:44:12.265Z,6.96
2022-11-04T04:45:12.229Z,6.92
2022-11-04T04:46:12.255Z,6.91
2022-11-04T04:47:12.267Z,6.90
2022-11-04T04:48:12.232Z,6.85
2022-11-04T04:49:12.228Z,6.83
2022-11-04T04:50:12.285Z,6.83
2022-11-04T04:51:12.277Z,6.79
2022-11-04T04:52:12.248Z,6.79
2022-11-04T04:53:12.382Z,6.76
2022-11-04T04:54:12.236Z,6.74
2022-11-04T04:55:12.321Z,6.73
2022-11-04T04:56:12.284Z,6.72
2022-11-04T04:57:12.284Z,6.71
2022-11-04T04:58:12.262Z,6.72
2022-11-04T04:59:12.264Z,6.72
2022-11-04T05:00:12.234Z,6.73
2022-11-04T05:01:12.308Z,6.74
2022-11-04T05:02:12.412Z,6.76
2022-11-04T05:03:12.354Z,6.78
2022-11-04T05:04:12.241Z,6.78
2022-11-04T05:05:12.382Z,6.81
2022-11-04T05:06:12.265Z,6.82
2022-11-04T05:07:12.265Z,6.84
2022-11-04T05:08:12.563Z,6.84
2022-11-04T05:09:12.284Z,6.87
2022-11-04T05:10:12.273Z,6.90
2022-11-04T05:11:12.268Z,6.93
2022-11-04T05:12:12.284Z,6.94
2022-11-04T05:13:12.292Z,6.96
2022-11-04T05:14:12.284Z,6.97
2022-11-04T05:15:12.255Z,6.99
2022-11-04T05:16:12.261Z,7.00
2022-11-04T05:17:12.280Z,7.01
2022-11-04T05:18:12.362Z,7.02
2022-11-04T05:19:12.291Z,7.03
2022-11-04T05:20:12.249Z,7.04
2022-11-04T05:21:12.261Z,7.04
2022-11-04T05:22:12.258Z,7.05
2022-11-04T05:23:12.325Z,7.06
2022-11-04T05:24:12.281Z,7.06
2022-11-04T05:25:12.399Z,7.08
2022-11-04T05:26:12.266Z,7.10
2022-11-04T05:27:12.261Z,7.11
2022-11-04T05:28:12.460Z,7.12
2022-11-04T05:29:12.338Z,7.15
2022-11-04T05:30:12.289Z,7.14
2022-11-04T05:31:12.313Z,7.16
2022-11-04T05:32:12.269Z,7.16
2022-11-04T05:33:12.719Z,7.17
2022-11-04T05:34:12.338Z,7.19
2022-11-04T05:35:12.328Z,7.20
2022-11-04T05:36:12.298Z,7.21
2022-11-04T05:37:12.274Z,7.21
2022-11-04T05:38:12.269Z,7.23
2022-11-04T05:39:12.314Z,7.25
2022-11-04T05:40:12.282Z,7.26
2022-11-04T05:41:12.294Z,7.28
2022-11-04T05:42:12.306Z,7.29
2022-11-04T05:43:12.361Z,7.30
2022-11-04T05:44:12.326Z,7.31
2022-11-04T05:45:12.350Z,7.31
2022-11-04T05:46:12.329Z,7.32
2022-11-04T05:47:12.285Z,7.33
2022-11-04T05:48:12.305Z,7.35
2022-11-04T05:49:12.320Z,7.34
2022-11-04T05:50:12.313Z,7.34
2022-11-04T05:51:12.309Z,7.35
2022-11-04T05:52:12.285Z,7.35
2022-11-04T05:53:12.630Z,7.36
2022-11-04T05:54:12.326Z,7.36
2022-11-04T05:55:12.321Z,7.34
2022-11-04T05:56:12.338Z,7.31
2022-11-04T05:57:12.306Z,7.30
2022-11-04T05:58:12.353Z,7.30
2022-11-04T05:59:12.318Z,7.28
2022-11-04T06:00:12.365Z,7.27
2022-11-04T06:01:12.315Z,7.25
2022-11-04T06:02:12.466Z,7.25
2022-11-04T06:03:15.449Z,7.24
2022-11-04T06:04:12.318Z,7.25
2022-11-04T06:05:12.309Z,7.26
2022-11-04T06:06:12.321Z,7.27
2022-11-04T06:07:12.357Z,7.29
2022-11-04T06:08:12.547Z,7.31
2022-11-04T06:09:12.324Z,7.33
2022-11-04T06:10:12.340Z,7.34
2022-11-04T06:11:12.483Z,7.35
2022-11-04T06:12:12.345Z,7.36
2022-11-04T06:13:12.366Z,7.37
2022-11-04T06:14:17.494Z,7.37
2022-11-04T06:15:12.342Z,7.37
2022-11-04T06:16:12.333Z,7.35
2022-11-04T06:18:12.317Z,7.31
2022-11-04T06:19:15.116Z,7.29
2022-11-04T06:20:12.329Z,7.28
2022-11-04T06:21:12.323Z,7.26
2022-11-04T06:22:12.334Z,7.25
2022-11-04T06:23:12.359Z,7.25
2022-11-04T06:24:12.322Z,7.24
2022-11-04T06:25:12.323Z,7.24
2022-11-04T06:26:12.373Z,7.24
2022-11-04T06:27:12.340Z,7.24
2022-11-04T06:28:12.337Z,7.25
2022-11-04T06:29:12.382Z,7.24
2022-11-04T06:30:12.341Z,7.25
2022-11-04T06:31:12.343Z,7.25
2022-11-04T06:32:12.341Z,7.27
2022-11-04T06:33:12.329Z,7.29
2022-11-04T06:34:12.359Z,7.34
2022-11-04T06:35:12.352Z,7.41
2022-11-04T06:36:12.411Z,7.46
2022-11-04T06:37:12.337Z,7.57
2022-11-04T06:38:12.372Z,7.65
2022-11-04T06:39:12.370Z,7.73
2022-11-04T06:40:12.357Z,7.82
2022-11-04T06:41:12.368Z,7.90
2022-11-04T06:42:12.378Z,7.94
2022-11-04T06:43:12.364Z,8.00
2022-11-04T06:44:12.358Z,8.03
2022-11-04T06:45:12.347Z,8.06
2022-11-04T06:46:12.392Z,8.09
2022-11-04T06:47:12.361Z,8.09
2022-11-04T06:48:12.357Z,8.11
2022-11-04T06:49:12.414Z,8.12
2022-11-04T06:50:12.371Z,8.13
2022-11-04T06:51:12.382Z,8.15
2022-11-04T06:52:12.373Z,8.18
2022-11-04T06:53:12.357Z,8.20
2022-11-04T06:54:12.363Z,8.20
2022-11-04T06:55:12.363Z,8.21
2022-11-04T06:56:12.407Z,8.22
2022-11-04T06:57:12.404Z,8.21
2022-11-04T06:58:12.390Z,8.22
2022-11-04T06:59:12.710Z,8.24
2022-11-04T07:00:12.427Z,8.24
2022-11-04T07:01:17.250Z,8.26
2022-11-04T07:02:12.463Z,8.26
2022-11-04T07:03:12.395Z,8.25
2022-11-04T07:04:12.393Z,8.24
2022-11-04T07:05:12.374Z,8.25
2022-11-04T07:06:12.378Z,8.23
2022-11-04T07:07:12.399Z,8.23
2022-11-04T07:08:12.435Z,8.21
2022-11-04T07:09:12.382Z,8.21
2022-11-04T07:10:12.423Z,8.20
2022-11-04T07:11:12.414Z,8.22
2022-11-04T07:12:12.446Z,8.22
2022-11-04T07:13:12.414Z,8.23
2022-11-04T07:14:12.405Z,8.23
2022-11-04T07:15:12.398Z,8.24
2022-11-04T07:16:12.383Z,8.26
2022-11-04T07:17:12.402Z,8.25
2022-11-04T07:18:12.537Z,8.26
2022-11-04T07:19:12.403Z,8.28
2022-11-04T07:20:12.395Z,8.29
2022-11-04T07:21:12.419Z,8.31
2022-11-04T07:22:12.373Z,8.32
2022-11-04T07:23:12.413Z,8.33
2022-11-04T07:24:12.387Z,8.33
2022-11-04T07:25:12.426Z,8.34
2022-11-04T07:26:12.400Z,8.36
2022-11-04T07:27:12.391Z,8.36
2022-11-04T07:28:12.775Z,8.38
2022-11-04T07:29:12.399Z,8.41
2022-11-04T07:30:12.417Z,8.42
2022-11-04T07:31:12.459Z,8.44
2022-11-04T07:32:12.392Z,8.44
2022-11-04T07:33:12.396Z,8.48
2022-11-04T07:34:12.386Z,8.49
2022-11-04T07:35:12.406Z,8.50
2022-11-04T07:36:12.413Z,8.52
2022-11-04T07:37:12.414Z,8.52
2022-11-04T07:38:12.431Z,8.51
2022-11-04T07:39:12.390Z,8.52
2022-11-04T07:40:12.399Z,8.51
2022-11-04T07:41:12.422Z,8.50
2022-11-04T07:42:12.419Z,8.49
2022-11-04T07:43:12.427Z,8.48
2022-11-04T07:44:12.939Z,8.48
2022-11-04T07:45:12.408Z,8.47
2022-11-04T07:46:12.454Z,8.46
2022-11-04T07:47:12.421Z,8.46
2022-11-04T07:48:12.552Z,8.44
2022-11-04T07:49:12.480Z,8.43
2022-11-04T07:50:12.469Z,8.42
2022-11-04T07:51:12.438Z,8.41
2022-11-04T07:52:12.430Z,8.42
2022-11-04T07:53:12.748Z,8.42
2022-11-04T07:54:12.439Z,8.42
2022-11-04T07:55:12.426Z,8.41
2022-11-04T07:56:12.411Z,8.42
2022-11-04T07:57:12.404Z,8.42
2022-11-04T07:58:12.439Z,8.44
2022-11-04T07:59:12.421Z,8.45
2022-11-04T08:00:12.445Z,8.47
2022-11-04T08:01:12.445Z,8.49
2022-11-04T08:02:12.620Z,8.51
2022-11-04T08:03:12.879Z,8.55
2022-11-04T08:04:12.418Z,8.57
2022-11-04T08:05:12.420Z,8.60
2022-11-04T08:06:12.427Z,8.62
2022-11-04T08:07:12.413Z,8.64
2022-11-04T08:08:12.447Z,8.66
2022-11-04T08:09:12.496Z,8.69
2022-11-04T08:10:12.457Z,8.71
2022-11-04T08:11:17.131Z,8.72
2022-11-04T08:12:12.485Z,8.71
2022-11-04T08:13:12.464Z,8.72
2022-11-04T08:14:12.452Z,8.74
2022-11-04T08:15:12.406Z,8.75
2022-11-04T08:16:12.467Z,8.77
2022-11-04T08:17:12.486Z,8.76
2022-11-04T08:18:12.451Z,8.80
2022-11-04T08:19:12.462Z,8.80
2022-11-04T08:20:12.492Z,8.82
2022-11-04T08:21:12.422Z,8.82
2022-11-04T08:22:12.447Z,8.83
2022-11-04T08:23:12.548Z,8.86
2022-11-04T08:24:12.443Z,8.87
2022-11-04T08:25:12.459Z,8.89
2022-11-04T08:26:12.461Z,8.88
2022-11-04T08:27:12.458Z,8.90
2022-11-04T08:28:12.478Z,8.91
2022-11-04T08:29:12.490Z,8.91
2022-11-04T08:30:12.444Z,8.91
2022-11-04T08:31:12.478Z,8.90
2022-11-04T08:32:12.437Z,8.92
2022-11-04T08:33:12.498Z,8.92
2022-11-04T08:34:12.458Z,8.92
2022-11-04T08:35:12.457Z,8.92
2022-11-04T08:36:12.450Z,8.93
2022-11-04T08:37:12.453Z,8.94
2022-11-04T08:38:12.489Z,8.95
2022-11-04T08:39:12.483Z,8.97
2022-11-04T08:40:12.449Z,9.00
2022-11-04T08:41:12.445Z,9.02
2022-11-04T08:42:12.446Z,9.04
2022-11-04T08:43:12.589Z,9.03
2022-11-04T08:44:12.468Z,9.05
2022-11-04T08:45:12.508Z,9.07
2022-11-04T08:46:12.505Z,9.10
2022-11-04T08:47:12.462Z,9.10
2022-11-04T08:48:12.812Z,9.10
2022-11-04T08:49:16.237Z,9.10
2022-11-04T08:50:12.517Z,9.10
2022-11-04T08:51:12.480Z,9.07
2022-11-04T08:52:12.533Z,9.05
2022-11-04T08:53:12.576Z,9.03
2022-11-04T08:54:12.478Z,9.02
2022-11-04T08:55:12.490Z,9.00
2022-11-04T08:56:12.462Z,9.00
2022-11-04T08:57:12.476Z,9.01
2022-11-04T08:58:12.592Z,9.02
2022-11-04T08:59:12.475Z,9.03
2022-11-04T09:00:12.490Z,9.04
2022-11-04T09:01:12.478Z,9.08
2022-11-04T09:02:12.540Z,9.09
2022-11-04T09:03:12.718Z,9.10
2022-11-04T09:04:12.564Z,9.10
2022-11-04T09:05:12.503Z,9.10
2022-11-04T09:06:12.541Z,9.13
2022-11-04T09:07:12.503Z,9.14
2022-11-04T09:08:12.506Z,9.16
2022-11-04T09:09:12.502Z,9.19
2022-11-04T09:10:12.493Z,9.23
2022-11-04T09:11:12.508Z,9.26
2022-11-04T09:12:12.510Z,9.29
2022-11-04T09:13:12.704Z,9.32
2022-11-04T09:14:12.491Z,9.34
2022-11-04T09:15:13.537Z,9.36
2022-11-04T09:16:12.523Z,9.37
2022-11-04T09:17:12.497Z,9.38
2022-11-04T09:18:12.488Z,9.41
2022-11-04T09:19:12.480Z,9.43
2022-11-04T09:20:12.516Z,9.44
2022-11-04T09:21:12.528Z,9.44
2022-11-04T09:22:12.508Z,9.46
2022-11-04T09:23:12.642Z,9.50
2022-11-04T09:24:12.526Z,9.53
2022-11-04T09:25:12.515Z,9.54
2022-11-04T09:26:12.531Z,9.58
2022-11-04T09:27:12.526Z,9.61
2022-11-04T09:28:12.517Z,9.64
2022-11-04T09:29:12.518Z,9.66
2022-11-04T09:30:12.522Z,9.68
2022-11-04T09:31:12.547Z,9.70
2022-11-04T09:32:12.508Z,9.71
2022-11-04T09:33:12.617Z,9.74
2022-11-04T09:34:12.539Z,9.77
2022-11-04T09:35:12.547Z,9.74
2022-11-04T09:36:12.558Z,9.74
2022-11-04T09:37:12.519Z,9.72
2022-11-04T09:38:12.556Z,9.71
2022-11-04T09:39:12.535Z,9.71
2022-11-04T09:40:12.540Z,9.69
2022-11-04T09:41:12.550Z,9.69
2022-11-04T09:42:12.573Z,9.67
2022-11-04T09:43:12.670Z,9.66
2022-11-04T09:44:12.538Z,9.66
2022-11-04T09:45:21.795Z,9.66
2022-11-04T09:46:12.545Z,9.64
2022-11-04T09:47:12.565Z,9.61
2022-11-04T09:48:12.626Z,9.61
2022-11-04T09:49:12.561Z,9.63
2022-11-04T09:50:12.555Z,9.66
2022-11-04T09:51:26.319Z,9.70
2022-11-04T09:52:12.529Z,9.75
2022-11-04T09:53:12.606Z,9.77
2022-11-04T09:54:12.613Z,9.79
2022-11-04T09:55:12.566Z,9.79
2022-11-04T09:56:12.565Z,9.81
2022-11-04T09:57:12.546Z,9.81
2022-11-04T09:58:12.684Z,9.85
2022-11-04T09:59:12.547Z,9.88
2022-11-04T10:00:12.548Z,9.93
2022-11-04T10:01:12.608Z,9.95
2022-11-04T10:02:15.290Z,9.98
2022-11-04T10:03:12.911Z,10.03
2022-11-04T10:04:12.568Z,10.11
2022-11-04T10:05:12.562Z,10.18
2022-11-04T10:06:12.563Z,10.22
2022-11-04T10:07:12.568Z,10.23
2022-11-04T10:08:12.617Z,10.21
2022-11-04T10:09:12.586Z,10.24
2022-11-04T10:10:12.558Z,10.28
2022-11-04T10:11:12.569Z,10.31
2022-11-04T10:12:12.536Z,10.35
2022-11-04T10:13:12.643Z,10.37
2022-11-04T10:14:12.611Z,10.39
2022-11-04T10:15:12.566Z,10.41
2022-11-04T10:16:12.570Z,10.40
2022-11-04T10:17:12.574Z,10.39
2022-11-04T10:18:12.558Z,10.38
2022-11-04T10:19:12.584Z,10.35
2022-11-04T10:20:12.593Z,10.35
2022-11-04T10:21:12.566Z,10.34
2022-11-04T10:22:12.557Z,10.34
2022-11-04T10:23:12.666Z,10.35
2022-11-04T10:24:12.600Z,10.38
2022-11-04T10:25:12.587Z,10.41
2022-11-04T10:26:12.559Z,10.45
2022-11-04T10:27:12.589Z,10.47
2022-11-04T10:28:12.594Z,10.53
2022-11-04T10:29:12.596Z,10.57
2022-11-04T10:30:12.593Z,10.60
2022-11-04T10:31:12.585Z,10.62
2022-11-04T10:32:12.597Z,10.63
2022-11-04T10:33:12.781Z,10.64
2022-11-04T10:34:12.587Z,10.64
2022-11-04T10:35:12.578Z,10.66
2022-11-04T10:36:12.625Z,10.63
2022-11-04T10:37:12.632Z,10.64
2022-11-04T10:38:12.598Z,10.63
2022-11-04T10:39:12.602Z,10.64
2022-11-04T10:40:12.604Z,10.65
2022-11-04T10:41:12.587Z,10.66
2022-11-04T10:42:12.606Z,10.67
2022-11-04T10:43:12.786Z,10.67
2022-11-04T10:44:12.580Z,10.68
2022-11-04T10:45:12.603Z,10.68
2022-11-04T10:46:12.603Z,10.68
2022-11-04T10:47:12.621Z,10.67
2022-11-04T10:48:12.649Z,10.63
2022-11-04T10:49:12.633Z,10.58
2022-11-04T10:50:29.961Z,10.55
2022-11-04T10:51:12.623Z,10.51
2022-11-04T10:52:12.612Z,10.51
2022-11-04T10:53:12.615Z,10.49
2022-11-04T10:54:12.632Z,10.49
2022-11-04T10:55:12.633Z,10.50
2022-11-04T10:56:12.610Z,10.50
2022-11-04T10:57:12.626Z,10.50
2022-11-04T10:58:12.648Z,10.51
2022-11-04T10:59:16.305Z,10.53
2022-11-04T11:00:12.620Z,10.56
2022-11-04T11:01:15.048Z,10.60
2022-11-04T11:02:12.634Z,10.63
2022-11-04T11:03:12.591Z,10.62
2022-11-04T11:04:12.644Z,10.65
2022-11-04T11:05:12.629Z,10.67
2022-11-04T11:06:12.664Z,10.69
2022-11-04T11:07:12.683Z,10.73
2022-11-04T11:08:12.675Z,10.74
2022-11-04T11:09:12.721Z,10.76
2022-11-04T11:10:12.762Z,10.75
2022-11-04T11:11:12.740Z,10.74
2022-11-04T11:12:36.677Z,10.75
2022-11-04T11:13:12.784Z,10.78
2022-11-04T11:14:12.782Z,10.79
2022-11-04T11:15:14.656Z,10.80
2022-11-04T11:16:12.754Z,10.82
2022-11-04T11:17:12.711Z,10.83
2022-11-04T11:18:12.734Z,10.81
2022-11-04T11:19:12.733Z,10.81
2022-11-04T11:20:12.800Z,10.81
2022-11-04T11:21:12.767Z,10.82
2022-11-04T11:22:12.738Z,10.81
2022-11-04T11:23:12.924Z,10.78
2022-11-04T11:24:12.752Z,10.75
2022-11-04T11:25:12.731Z,10.74
2022-11-04T11:26:12.761Z,10.72
2022-11-04T11:27:12.772Z,10.72
2022-11-04T11:28:12.755Z,10.72
2022-11-04T11:29:12.749Z,10.70
2022-11-04T11:30:12.768Z,10.70
2022-11-04T11:31:12.723Z,10.70
2022-11-04T11:32:12.782Z,10.74
2022-11-04T11:33:12.833Z,10.77
2022-11-04T11:34:12.742Z,10.80
2022-11-04T11:35:12.736Z,10.83
2022-11-04T11:36:12.733Z,10.86
2022-11-04T11:37:12.758Z,10.89
2022-11-04T11:38:12.745Z,10.91
2022-11-04T11:39:12.953Z,10.95
2022-11-04T11:40:12.761Z,11.01
2022-11-04T11:41:26.446Z,11.06
2022-11-04T11:42:12.749Z,11.13
2022-11-04T11:43:12.774Z,11.21
2022-11-04T11:44:12.751Z,11.23
2022-11-04T11:45:12.771Z,11.27
2022-11-04T11:46:12.746Z,11.28
2022-11-04T11:47:12.770Z,11.30
2022-11-04T11:48:12.746Z,11.31
2022-11-04T11:49:12.848Z,11.27
2022-11-04T11:50:12.762Z,11.26
2022-11-04T11:51:12.785Z,11.27
2022-11-04T11:52:12.790Z,11.32
2022-11-04T11:53:12.784Z,11.35
2022-11-04T11:54:12.777Z,11.39
2022-11-04T11:55:12.785Z,11.38
2022-11-04T11:56:12.774Z,11.36
2022-11-04T11:57:14.669Z,11.38
2022-11-04T12:00:37.642Z,11.46
2022-11-04T12:01:21.951Z,11.48
2022-11-04T12:02:12.861Z,11.51
2022-11-04T12:03:13.464Z,11.55
2022-11-04T12:10:18.532Z,11.51
2022-11-04T12:11:12.761Z,11.53
2022-11-04T12:12:12.802Z,11.52
2022-11-04T12:13:23.812Z,11.54
2022-11-04T12:14:12.813Z,11.58
2022-11-04T12:15:12.859Z,11.58
2022-11-04T12:16:12.786Z,11.55
2022-11-04T12:17:12.831Z,11.48
2022-11-04T12:18:12.780Z,11.45
2022-11-04T12:19:12.844Z,11.45
2022-11-04T12:20:15.030Z,11.44
2022-11-04T12:21:12.795Z,11.44
2022-11-04T12:22:12.813Z,11.47
2022-11-04T12:23:12.802Z,11.49
2022-11-04T12:24:12.825Z,11.51
2022-11-04T12:25:12.798Z,11.52
2022-11-04T12:26:12.819Z,11.54
2022-11-04T12:27:12.813Z,11.57
2022-11-04T12:28:12.806Z,11.63
2022-11-04T12:29:12.860Z,11.74
2022-11-04T12:30:12.878Z,11.87
2022-11-04T12:31:12.835Z,11.97
2022-11-04T12:32:12.822Z,12.11
2022-11-04T12:33:12.880Z,12.31
2022-11-04T12:34:12.826Z,12.58
2022-11-04T12:35:12.833Z,12.93
2022-11-04T12:36:12.800Z,13.38
2022-11-04T12:37:12.819Z,13.84
2022-11-04T12:38:12.856Z,14.17
2022-11-04T12:39:12.870Z,14.39
2022-11-04T12:40:12.885Z,14.55
2022-11-04T12:41:34.644Z,14.47
2022-11-04T12:42:21.220Z,14.30
2022-11-04T12:43:12.995Z,14.17
2022-11-04T12:44:12.917Z,14.00
2022-11-04T12:45:12.881Z,13.76
2022-11-04T12:46:12.880Z,13.49
2022-11-04T12:47:12.886Z,13.24
2022-11-04T12:48:12.908Z,13.06
2022-11-04T12:49:12.904Z,13.03
2022-11-04T12:50:12.903Z,13.05
2022-11-04T12:51:12.877Z,13.04
2022-11-04T12:52:12.862Z,12.99
2022-11-04T12:53:12.981Z,12.90
2022-11-04T12:54:12.898Z,12.76
2022-11-04T12:55:12.930Z,12.62
2022-11-04T12:56:12.893Z,12.53
2022-11-04T12:57:12.887Z,12.49
2022-11-04T12:58:12.911Z,12.42
2022-11-04T12:59:12.886Z,12.32
2022-11-04T13:00:13.028Z,12.25
2022-11-04T13:01:15.544Z,12.28
2022-11-04T13:02:13.031Z,12.45
2022-11-04T13:03:13.005Z,12.64
2022-11-04T13:04:12.894Z,12.78
2022-11-04T13:05:12.889Z,12.89
2022-11-04T13:06:12.934Z,12.92
2022-11-04T13:07:12.903Z,12.91
2022-11-04T13:08:14.142Z,12.92
2022-11-04T13:09:12.923Z,12.90
2022-11-04T13:10:12.930Z,12.84
2022-11-04T13:11:12.944Z,12.75
2022-11-04T13:12:12.910Z,12.65
2022-11-04T13:13:12.934Z,12.55
2022-11-04T13:14:12.928Z,12.51
2022-11-04T13:15:12.923Z,12.45
2022-11-04T13:16:12.956Z,12.38
2022-11-04T13:17:12.912Z,12.35
2022-11-04T13:18:12.930Z,12.30
2022-11-04T13:19:12.932Z,12.22
2022-11-04T13:20:12.934Z,12.12